createdAt,value
2022-08-30T00:00:19.528Z,6.70
2022-08-30T00:01:19.510Z,6.60
2022-08-30T00:02:19.643Z,6.40
2022-08-30T00:03:19.943Z,6.50
2022-08-30T00:04:19.504Z,6.40
2022-08-30T00:05:19.469Z,6.20
2022-08-30T00:06:19.460Z,6.60
2022-08-30T00:07:19.444Z,6.70
2022-08-30T00:08:19.439Z,6.20
2022-08-30T00:09:19.446Z,6.20
2022-08-30T00:10:19.420Z,6.60
2022-08-30T00:11:19.402Z,6.40
2022-08-30T00:12:19.398Z,6.60
2022-08-30T00:13:19.392Z,6.20
2022-08-30T00:14:19.396Z,6.30
2022-08-30T00:15:19.366Z,5.80
2022-08-30T00:16:19.366Z,6.20
2022-08-30T00:17:19.412Z,5.90
2022-08-30T00:18:19.339Z,5.90
2022-08-30T00:19:19.345Z,6.10
2022-08-30T00:20:19.318Z,6.10
2022-08-30T00:21:19.304Z,5.80
2022-08-30T00:22:19.303Z,5.90
2022-08-30T00:23:19.282Z,6.40
2022-08-30T00:24:19.307Z,6.50
2022-08-30T00:25:19.496Z,6.00
2022-08-30T00:26:19.260Z,6.10
2022-08-30T00:27:19.244Z,5.90
2022-08-30T00:28:19.244Z,6.20
2022-08-30T00:29:19.246Z,5.60
2022-08-30T00:30:19.216Z,5.80
2022-08-30T00:31:19.274Z,5.80
2022-08-30T00:32:19.199Z,5.90
2022-08-30T00:33:19.247Z,6.00
2022-08-30T00:34:19.198Z,6.30
2022-08-30T00:35:19.183Z,6.40
2022-08-30T00:36:19.167Z,6.20
2022-08-30T00:37:19.172Z,6.20
2022-08-30T00:38:19.160Z,6.20
2022-08-30T00:39:19.156Z,6.20
2022-08-30T00:40:19.203Z,6.50
2022-08-30T00:41:19.123Z,5.60
2022-08-30T00:42:19.113Z,6.00
2022-08-30T00:43:19.493Z,5.40
2022-08-30T00:44:19.115Z,5.80
2022-08-30T00:45:19.075Z,5.90
2022-08-30T00:46:19.120Z,6.00
2022-08-30T00:47:19.061Z,5.80
2022-08-30T00:48:19.042Z,5.70
2022-08-30T00:49:19.075Z,5.80
2022-08-30T00:50:19.034Z,6.20
2022-08-30T00:51:19.023Z,5.90
2022-08-30T00:52:18.999Z,6.50
2022-08-30T00:53:19.218Z,6.20
2022-08-30T00:54:19.008Z,6.40
2022-08-30T00:55:18.984Z,6.30
2022-08-30T00:56:18.962Z,6.20
2022-08-30T00:57:18.968Z,6.20
2022-08-30T00:58:18.946Z,6.20
2022-08-30T00:59:18.976Z,6.40
2022-08-30T01:00:18.919Z,6.00
2022-08-30T01:01:18.974Z,6.40
2022-08-30T01:02:18.933Z,6.40
2022-08-30T01:03:18.897Z,6.50
2022-08-30T01:04:18.921Z,6.40
2022-08-30T01:05:18.893Z,6.40
2022-08-30T01:06:18.871Z,6.30
2022-08-30T01:07:18.851Z,5.90
2022-08-30T01:08:18.858Z,6.10
2022-08-30T01:09:18.853Z,6.30
2022-08-30T01:10:18.820Z,6.40
2022-08-30T01:11:18.823Z,6.90
2022-08-30T01:12:18.806Z,6.80
2022-08-30T01:13:18.793Z,6.50
2022-08-30T01:14:18.794Z,6.40
2022-08-30T01:15:18.769Z,6.60
2022-08-30T01:16:18.803Z,7.00
2022-08-30T01:17:19.103Z,6.30
2022-08-30T01:18:18.738Z,6.60
2022-08-30T01:19:18.763Z,6.90
2022-08-30T01:20:18.727Z,6.50
2022-08-30T01:21:18.715Z,6.80
2022-08-30T01:22:18.717Z,6.80
2022-08-30T01:23:18.690Z,6.90
2022-08-30T01:24:18.694Z,6.90
2022-08-30T01:25:18.690Z,7.20
2022-08-30T01:26:19.227Z,6.80
2022-08-30T01:27:18.673Z,6.70
2022-08-30T01:28:18.647Z,7.00
2022-08-30T01:29:18.644Z,7.20
2022-08-30T01:30:18.632Z,6.80
2022-08-30T01:31:18.675Z,6.50
2022-08-30T01:32:20.989Z,7.10
2022-08-30T01:33:18.703Z,7.20
2022-08-30T01:34:18.614Z,7.70
2022-08-30T01:35:18.584Z,7.40
2022-08-30T01:36:18.562Z,7.20
2022-08-30T01:37:18.561Z,7.60
2022-08-30T01:38:18.536Z,7.40
2022-08-30T01:39:18.546Z,7.20
2022-08-30T01:40:18.656Z,7.60
2022-08-30T01:41:18.556Z,7.50
2022-08-30T01:42:18.489Z,8.20
2022-08-30T01:43:18.484Z,7.10
2022-08-30T01:44:18.486Z,8.10
2022-08-30T01:45:18.483Z,7.20
2022-08-30T01:46:18.498Z,7.20
2022-08-30T01:47:18.449Z,7.40
2022-08-30T01:48:18.443Z,7.10
2022-08-30T01:49:18.928Z,7.40
2022-08-30T01:50:18.420Z,7.40
2022-08-30T01:51:18.413Z,8.20
2022-08-30T01:52:18.389Z,7.20
2022-08-30T01:53:18.383Z,7.70
2022-08-30T01:54:18.397Z,7.50
2022-08-30T01:55:18.374Z,7.70
2022-08-30T01:56:18.353Z,7.50
2022-08-30T01:57:18.584Z,8.00
2022-08-30T01:58:18.330Z,7.80
2022-08-30T01:59:18.371Z,7.80
2022-08-30T02:00:18.309Z,7.20
2022-08-30T02:01:18.431Z,7.70
2022-08-30T02:02:18.301Z,7.60
2022-08-30T02:03:18.655Z,7.30
2022-08-30T02:04:18.297Z,7.90
2022-08-30T02:05:18.261Z,7.40
2022-08-30T02:06:18.245Z,7.40
2022-08-30T02:07:18.262Z,7.80
2022-08-30T02:08:18.227Z,8.40
2022-08-30T02:09:18.255Z,7.40
2022-08-30T02:10:18.232Z,7.50
2022-08-30T02:11:18.230Z,7.70
2022-08-30T02:12:18.194Z,7.80
2022-08-30T02:13:18.268Z,7.30
2022-08-30T02:14:18.184Z,7.50
2022-08-30T02:15:18.173Z,7.60
2022-08-30T02:16:18.245Z,7.60
2022-08-30T02:17:18.134Z,7.70
2022-08-30T02:18:18.147Z,7.50
2022-08-30T02:19:18.141Z,7.70
2022-08-30T02:20:18.107Z,7.60
2022-08-30T02:21:18.096Z,7.60
2022-08-30T02:22:18.101Z,7.50
2022-08-30T02:23:18.297Z,7.50
2022-08-30T02:24:18.089Z,8.30
2022-08-30T02:25:20.914Z,7.80
2022-08-30T02:26:18.177Z,7.80
2022-08-30T02:27:18.032Z,8.10
2022-08-30T02:28:18.451Z,7.90
2022-08-30T02:29:18.047Z,7.70
2022-08-30T02:30:18.010Z,8.10
2022-08-30T02:31:18.027Z,8.20
2022-08-30T02:32:17.990Z,8.00
2022-08-30T02:33:18.127Z,7.90
2022-08-30T02:34:18.010Z,7.80
2022-08-30T02:35:17.960Z,8.10
2022-08-30T02:36:17.961Z,7.90
2022-08-30T02:37:17.949Z,7.60
2022-08-30T02:38:19.889Z,8.20
2022-08-30T02:39:17.948Z,7.70
2022-08-30T02:40:17.946Z,7.80
2022-08-30T02:41:17.900Z,7.60
2022-08-30T02:42:17.902Z,8.00
2022-08-30T02:43:18.082Z,8.10
2022-08-30T02:44:17.891Z,7.90
2022-08-30T02:45:17.848Z,7.60
2022-08-30T02:46:17.898Z,7.90
2022-08-30T02:47:17.838Z,7.20
2022-08-30T02:48:17.833Z,7.70
2022-08-30T02:49:34.136Z,7.30
2022-08-30T02:50:17.824Z,7.30
2022-08-30T02:51:17.789Z,7.80
2022-08-30T02:52:17.784Z,7.70
2022-08-30T02:53:18.135Z,7.70
2022-08-30T02:54:17.793Z,7.80
2022-08-30T02:55:17.765Z,7.30
2022-08-30T02:56:17.751Z,8.00
2022-08-30T02:57:20.325Z,7.30
2022-08-30T02:58:17.726Z,7.70
2022-08-30T18:30:53.016Z,4.30
2022-08-30T18:31:54.160Z,4.80
2022-08-30T18:32:53.977Z,4.70
2022-08-30T18:33:53.991Z,4.40
2022-08-30T18:34:53.943Z,4.80
2022-08-30T18:35:54.623Z,4.70
2022-08-30T18:36:53.953Z,4.90
2022-08-30T18:37:53.925Z,4.50
2022-08-30T18:38:54.755Z,4.30
2022-08-30T18:39:53.923Z,4.50
2022-08-30T18:40:53.965Z,4.30
2022-08-30T18:41:54.275Z,4.40
2022-08-30T18:42:53.877Z,4.40
2022-08-30T18:44:10.997Z,4.40
2022-08-30T18:44:53.849Z,4.60
2022-08-30T18:45:53.850Z,4.40
2022-08-30T18:46:56.338Z,4.70
2022-08-30T18:47:53.828Z,4.60
2022-08-30T18:48:53.914Z,4.70
2022-08-30T18:49:53.818Z,4.60
2022-08-30T18:50:53.807Z,4.80
2022-08-30T18:51:53.791Z,5.00
2022-08-30T18:52:53.780Z,4.80
2022-08-30T18:53:53.780Z,5.00
2022-08-30T18:54:53.741Z,5.00
2022-08-30T18:55:53.744Z,4.70
2022-08-30T18:56:53.738Z,4.60
2022-08-30T18:57:54.768Z,5.20
2022-08-30T18:58:53.717Z,4.80
2022-08-30T18:59:53.699Z,4.70
2022-08-30T19:00:56.838Z,4.80
2022-08-30T19:01:53.710Z,4.40
2022-08-30T19:02:53.659Z,4.40
2022-08-30T19:03:53.688Z,4.60
2022-08-30T19:04:53.648Z,4.60
2022-08-30T19:05:53.632Z,3.90
2022-08-30T19:06:53.620Z,4.20
2022-08-30T19:07:54.970Z,4.30
2022-08-30T19:08:53.722Z,4.20
2022-08-30T19:09:53.618Z,4.70
2022-08-30T19:10:53.595Z,4.00
2022-08-30T19:11:53.571Z,4.00
2022-08-30T19:12:53.556Z,4.40
2022-08-30T19:13:53.591Z,4.70
2022-08-30T19:14:53.556Z,4.60
2022-08-30T19:15:53.538Z,4.50
2022-08-30T19:16:53.519Z,4.60
2022-08-30T19:17:53.511Z,4.60
2022-08-30T19:18:53.543Z,4.50
2022-08-30T19:19:54.270Z,4.50
2022-08-30T19:20:53.476Z,4.60
2022-08-30T19:21:53.481Z,4.60
2022-08-30T19:23:09.941Z,4.40
2022-08-30T19:23:55.205Z,4.30
2022-08-30T19:24:53.434Z,4.30
2022-08-30T19:25:53.534Z,4.10
2022-08-30T19:26:53.441Z,3.80
2022-08-30T19:27:53.431Z,3.70
2022-08-30T19:28:53.458Z,3.40
2022-08-30T19:29:53.762Z,3.60
2022-08-30T19:30:53.379Z,3.70
2022-08-30T19:31:53.388Z,3.70
2022-08-30T19:32:53.364Z,3.60
2022-08-30T19:33:53.371Z,3.90
2022-08-30T19:34:53.353Z,3.80
2022-08-30T19:35:53.342Z,3.90
2022-08-30T19:36:53.318Z,3.80
2022-08-30T19:37:53.332Z,3.90
2022-08-30T19:38:53.317Z,3.20
2022-08-30T19:39:53.338Z,3.80
2022-08-30T19:40:54.801Z,3.90
2022-08-30T19:41:53.281Z,3.70
2022-08-30T19:42:53.269Z,3.60
2022-08-30T19:43:53.268Z,4.00
2022-08-30T19:44:53.229Z,3.70
2022-08-30T19:45:53.244Z,3.80
2022-08-30T19:46:55.104Z,3.60
2022-08-30T19:47:53.226Z,3.90
2022-08-30T19:48:53.232Z,3.70
2022-08-30T19:49:53.197Z,3.60
2022-08-30T19:50:53.184Z,4.10
2022-08-30T19:51:53.178Z,4.00
2022-08-30T19:52:54.906Z,3.40
2022-08-30T19:53:53.245Z,3.60
2022-08-30T19:54:53.156Z,3.40
2022-08-30T19:55:53.705Z,3.70
2022-08-30T19:56:53.114Z,3.50
2022-08-30T19:57:53.108Z,3.60
2022-08-30T19:58:53.150Z,3.70
2022-08-30T19:59:53.089Z,3.30
2022-08-30T20:00:57.671Z,3.40
2022-08-30T20:01:53.133Z,3.40
2022-08-30T20:02:53.079Z,3.70
2022-08-30T20:03:53.061Z,3.70
2022-08-30T20:04:53.051Z,3.50
2022-08-30T20:05:53.742Z,3.50
2022-08-30T20:06:53.074Z,3.80
2022-08-30T20:07:53.006Z,3.40
2022-08-30T20:08:53.358Z,3.60
2022-08-30T20:09:52.976Z,3.60
2022-08-30T20:10:54.805Z,3.60
2022-08-30T20:11:57.313Z,3.50
2022-08-30T20:12:52.978Z,3.60
2022-08-30T20:13:53.940Z,3.50
2022-08-30T20:14:53.729Z,3.40
2022-08-30T20:24:39.262Z,3.80
2022-08-30T20:24:48.197Z,3.60
2022-08-30T20:25:47.917Z,3.50
2022-08-30T20:26:47.890Z,3.30
2022-08-30T20:27:47.881Z,3.50
2022-08-30T20:28:47.896Z,3.60
2022-08-30T20:29:47.869Z,3.30
2022-08-30T20:30:47.866Z,3.20
2022-08-30T20:31:47.859Z,3.30
2022-08-30T20:32:47.842Z,3.40
2022-08-30T20:33:47.848Z,3.40
2022-08-30T20:34:47.826Z,2.90
2022-08-30T20:35:49.564Z,3.30
2022-08-30T20:36:47.802Z,3.30
2022-08-30T20:37:47.819Z,3.10
2022-08-30T20:38:47.817Z,3.00
2022-08-30T20:39:47.775Z,3.20
2022-08-30T20:40:47.823Z,3.10
2022-08-30T20:41:47.740Z,3.70
2022-08-30T20:42:47.728Z,3.50
2022-08-30T20:43:47.746Z,3.60
2022-08-30T20:44:47.691Z,3.70
2022-08-30T20:45:47.775Z,3.80
2022-08-30T20:46:47.694Z,3.50
2022-08-30T20:47:47.683Z,3.70
2022-08-30T20:48:47.691Z,3.70
2022-08-30T20:49:47.660Z,3.90
2022-08-30T20:50:47.645Z,6.20
2022-08-30T20:51:50.988Z,7.70
2022-08-30T20:52:47.622Z,8.00
2022-08-30T20:53:47.632Z,7.50
2022-08-30T20:54:47.604Z,10.20
2022-08-30T20:55:47.613Z,10.40
2022-08-30T20:56:47.589Z,13.00
2022-08-30T20:57:47.619Z,15.20
2022-08-30T20:58:47.582Z,8.10
2022-08-30T20:59:47.551Z,10.00
2022-08-30T21:00:47.553Z,11.40
2022-08-30T21:01:47.576Z,11.40
2022-08-30T21:02:48.504Z,8.80
2022-08-30T21:03:47.530Z,11.90
2022-08-30T21:04:47.514Z,8.40
2022-08-30T21:05:48.312Z,11.50
2022-08-30T21:06:47.616Z,9.80
2022-08-30T21:07:47.490Z,11.90
2022-08-30T21:08:47.629Z,11.10
2022-08-30T21:09:47.449Z,11.40
2022-08-30T21:10:47.455Z,9.90
2022-08-30T21:11:47.429Z,10.80
2022-08-30T21:12:47.434Z,9.90
2022-08-30T21:13:47.428Z,10.90
2022-08-30T21:14:47.420Z,11.50
2022-08-30T21:15:47.411Z,12.30
2022-08-30T21:16:47.419Z,12.70
2022-08-30T21:17:47.388Z,11.40
2022-08-30T21:18:47.388Z,13.10
2022-08-30T21:19:47.347Z,8.90
2022-08-30T21:20:47.334Z,11.30
2022-08-30T21:21:47.326Z,11.40
2022-08-30T21:22:47.333Z,9.80
2022-08-30T21:23:47.325Z,11.70
2022-08-30T21:24:47.303Z,10.00
2022-08-30T21:25:47.297Z,10.20
2022-08-30T21:26:47.274Z,7.70
2022-08-30T21:27:47.282Z,12.00
2022-08-30T21:28:47.289Z,12.00
2022-08-30T21:29:47.251Z,15.70
2022-08-30T21:30:47.310Z,11.40
2022-08-30T21:31:47.443Z,9.50
2022-08-30T21:32:47.293Z,12.60
2022-08-30T21:33:47.224Z,10.70
2022-08-30T21:34:47.189Z,10.60
2022-08-30T21:35:47.192Z,10.30
2022-08-30T21:36:47.173Z,8.50
2022-08-30T21:37:47.179Z,9.10
2022-08-30T21:38:47.186Z,13.80
2022-08-30T21:39:47.152Z,17.70
2022-08-30T21:40:47.186Z,16.50
2022-08-30T21:41:47.133Z,12.60
2022-08-30T21:42:47.110Z,16.80
2022-08-30T21:43:47.142Z,18.00
2022-08-30T21:44:47.107Z,14.40
2022-08-30T21:45:47.124Z,18.90
2022-08-30T21:46:47.084Z,21.40
2022-08-30T21:47:47.081Z,15.90
2022-08-30T21:48:47.085Z,16.90
2022-08-30T21:49:47.047Z,18.10
2022-08-30T21:50:47.039Z,19.80
2022-08-30T21:51:47.062Z,18.30
2022-08-30T21:52:47.028Z,19.00
2022-08-30T21:53:47.027Z,21.00
2022-08-30T21:54:46.997Z,19.80
2022-08-30T21:55:47.996Z,20.50
2022-08-30T21:56:46.968Z,17.90
2022-08-30T21:57:46.978Z,13.50
2022-08-30T21:58:46.971Z,12.10
2022-08-30T21:59:46.954Z,13.70
2022-08-30T22:00:46.945Z,11.40
2022-08-30T22:01:47.013Z,14.20
2022-08-30T22:02:47.094Z,12.80
2022-08-30T22:03:47.161Z,14.90
2022-08-30T22:04:46.884Z,15.60
2022-08-30T22:05:46.900Z,14.00
2022-08-30T22:06:46.874Z,14.50
2022-08-30T22:07:46.942Z,17.00
2022-08-30T22:08:46.869Z,16.70
2022-08-30T22:09:46.841Z,16.50
2022-08-30T22:10:46.824Z,19.20
2022-08-30T22:11:46.819Z,20.70
2022-08-30T22:12:46.803Z,21.60
2022-08-30T22:13:46.832Z,25.10
2022-08-30T22:14:46.783Z,24.50
2022-08-30T22:15:46.795Z,22.80
2022-08-30T22:16:46.823Z,23.90
2022-08-30T22:17:46.763Z,23.00
2022-08-30T22:18:46.762Z,27.80
2022-08-30T22:19:46.759Z,27.60
2022-08-30T22:20:46.734Z,29.00
2022-08-30T22:21:46.728Z,27.70
2022-08-30T22:22:46.699Z,19.50
2022-08-30T22:23:46.727Z,15.70
2022-08-30T22:24:46.701Z,18.70
2022-08-30T22:25:46.683Z,17.20
2022-08-30T22:26:46.661Z,16.90
2022-08-30T22:27:46.672Z,24.10
2022-08-30T22:28:46.669Z,21.80
2022-08-30T22:29:46.640Z,21.00
2022-08-30T22:30:46.637Z,18.10
2022-08-30T22:31:46.686Z,20.80
2022-08-30T22:32:46.604Z,24.40
2022-08-30T22:33:46.612Z,24.30
2022-08-30T22:34:46.599Z,21.60
2022-08-30T22:35:46.597Z,18.40
2022-08-30T22:36:46.568Z,21.40
2022-08-30T22:37:47.661Z,21.50
2022-08-30T22:38:46.558Z,20.10
2022-08-30T22:39:46.571Z,23.80
2022-08-30T22:40:46.659Z,23.30
2022-08-30T22:41:46.524Z,19.10
2022-08-30T22:42:48.286Z,18.30
2022-08-30T22:43:46.689Z,17.80
2022-08-30T22:44:46.481Z,17.10
2022-08-30T22:45:46.536Z,18.30
2022-08-30T22:46:46.457Z,19.00
2022-08-30T22:47:46.464Z,19.70
2022-08-30T22:48:46.457Z,18.20
2022-08-30T22:49:46.469Z,17.50
2022-08-30T22:50:46.415Z,17.80
2022-08-30T22:51:46.408Z,18.40
2022-08-30T22:52:46.396Z,20.10
2022-08-30T22:53:46.408Z,19.80
2022-08-30T22:54:46.398Z,21.30
2022-08-30T22:55:46.379Z,18.90
2022-08-30T22:56:46.354Z,19.10
2022-08-30T22:57:46.358Z,22.20
2022-08-30T22:58:46.409Z,22.10
2022-08-30T22:59:46.350Z,22.10
2022-08-30T23:00:50.090Z,25.00
2022-08-30T23:01:46.335Z,25.90
2022-08-30T23:02:46.321Z,24.10
2022-08-30T23:03:46.308Z,23.60
2022-08-30T23:04:46.336Z,21.00
2022-08-30T23:05:46.269Z,17.30
2022-08-30T23:06:50.210Z,18.50
2022-08-30T23:07:46.265Z,17.10
2022-08-30T23:08:46.251Z,17.60
2022-08-30T23:09:46.296Z,19.00
2022-08-30T23:10:46.223Z,18.70
2022-08-30T23:11:46.222Z,19.10
2022-08-30T23:12:46.191Z,18.90
2022-08-30T23:13:46.189Z,19.70
2022-08-30T23:14:46.210Z,22.80
2022-08-30T23:15:46.202Z,17.70
2022-08-30T23:16:46.232Z,16.70
2022-08-30T23:17:46.159Z,21.20
2022-08-30T23:18:46.143Z,21.30
2022-08-30T23:19:46.153Z,22.10
2022-08-30T23:20:46.120Z,21.80
2022-08-30T23:21:46.116Z,20.00
2022-08-30T23:22:46.086Z,19.50
2022-08-30T23:23:46.101Z,17.80
2022-08-30T23:24:48.880Z,17.80
2022-08-30T23:25:46.071Z,15.60
2022-08-30T23:26:46.059Z,15.50
2022-08-30T23:27:46.042Z,17.60
2022-08-30T23:28:46.027Z,17.20
2022-08-30T23:29:46.061Z,20.10
2022-08-30T23:30:46.006Z,19.60
2022-08-30T23:31:46.033Z,17.70
2022-08-30T23:32:46.001Z,19.80
2022-08-30T23:33:45.991Z,17.90
2022-08-30T23:34:45.995Z,18.60
2022-08-30T23:35:45.978Z,20.20
2022-08-30T23:36:45.945Z,20.00
2022-08-30T23:37:45.939Z,20.10
2022-08-30T23:38:45.924Z,21.20
2022-08-30T23:39:45.948Z,22.80
2022-08-30T23:40:46.000Z,19.30
2022-08-30T23:41:45.898Z,16.30
2022-08-30T23:42:45.900Z,19.20
2022-08-30T23:43:45.887Z,20.70
2022-08-30T23:44:45.883Z,21.90
2022-08-30T23:45:45.920Z,23.60
2022-08-30T23:46:45.858Z,23.80
2022-08-30T23:47:45.837Z,20.90
2022-08-30T23:48:52.107Z,19.90
2022-08-30T23:49:45.825Z,19.70
2022-08-30T23:50:45.823Z,17.90
2022-08-30T23:51:45.817Z,19.00
2022-08-30T23:52:45.802Z,19.60
2022-08-30T23:53:46.312Z,18.90
2022-08-30T23:54:45.773Z,16.90
2022-08-30T23:55:45.764Z,19.20
2022-08-30T23:56:45.763Z,21.70
2022-08-30T23:57:45.743Z,19.40
2022-08-30T23:58:45.745Z,18.00
2022-08-30T23:59:45.715Z,19.40
